sensor_id;sensor_type;location;lat;lon;timestamp;P1;durP1;ratioP1;P2;durP2;ratioP2
9276;SDS011;4676;42.678;23.244;2023-07-20T00:01:29;5.73;;;2.33;;
9276;SDS011;4676;42.678;23.244;2023-07-20T00:03:55;3.93;;;2.60;;
9276;SDS011;4676;42.678;23.244;2023-07-20T00:06:24;7.10;;;2.97;;
9276;SDS011;4676;42.678;23.244;2023-07-20T00:08:52;8.03;;;3.10;;
9276;SDS011;4676;42.678;23.244;2023-07-20T00:11:19;9.63;;;3.57;;
9276;SDS011;4676;42.678;23.244;2023-07-20T00:13:46;3.60;;;2.53;;
9276;SDS011;4676;42.678;23.244;2023-07-20T00:16:13;4.93;;;2.90;;
9276;SDS011;4676;42.678;23.244;2023-07-20T00:18:39;5.67;;;2.87;;
9276;SDS011;4676;42.678;23.244;2023-07-20T00:21:06;4.20;;;3.20;;
9276;SDS011;4676;42.678;23.244;2023-07-20T00:23:34;3.37;;;3.07;;
9276;SDS011;4676;42.678;23.244;2023-07-20T00:26:01;4.70;;;2.80;;
9276;SDS011;4676;42.678;23.244;2023-07-20T00:28:28;4.03;;;3.43;;
9276;SDS011;4676;42.678;23.244;2023-07-20T00:30:55;7.13;;;3.13;;
9276;SDS011;4676;42.678;23.244;2023-07-20T00:33:21;3.53;;;3.20;;
9276;SDS011;4676;42.678;23.244;2023-07-20T00:35:48;4.27;;;3.03;;
9276;SDS011;4676;42.678;23.244;2023-07-20T00:38:15;6.67;;;3.10;;
9276;SDS011;4676;42.678;23.244;2023-07-20T00:40:43;5.77;;;3.03;;
9276;SDS011;4676;42.678;23.244;2023-07-20T00:43:10;4.27;;;3.73;;
9276;SDS011;4676;42.678;23.244;2023-07-20T00:45:37;4.67;;;3.53;;
9276;SDS011;4676;42.678;23.244;2023-07-20T00:48:05;4.70;;;3.33;;
9276;SDS011;4676;42.678;23.244;2023-07-20T00:50:33;3.03;;;2.13;;
9276;SDS011;4676;42.678;23.244;2023-07-20T00:53:04;5.10;;;2.67;;
9276;SDS011;4676;42.678;23.244;2023-07-20T00:55:31;5.80;;;2.80;;
9276;SDS011;4676;42.678;23.244;2023-07-20T00:57:59;3.67;;;2.90;;
9276;SDS011;4676;42.678;23.244;2023-07-20T01:00:26;4.73;;;3.30;;
9276;SDS011;4676;42.678;23.244;2023-07-20T01:02:53;3.87;;;2.87;;
9276;SDS011;4676;42.678;23.244;2023-07-20T01:05:20;7.87;;;2.90;;
9276;SDS011;4676;42.678;23.244;2023-07-20T01:07:50;4.73;;;3.77;;
9276;SDS011;4676;42.678;23.244;2023-07-20T01:10:23;8.57;;;2.97;;
9276;SDS011;4676;42.678;23.244;2023-07-20T01:12:55;2.30;;;2.20;;
9276;SDS011;4676;42.678;23.244;2023-07-20T01:15:25;2.97;;;2.70;;
9276;SDS011;4676;42.678;23.244;2023-07-20T01:17:52;8.20;;;2.80;;
9276;SDS011;4676;42.678;23.244;2023-07-20T01:20:19;2.77;;;2.53;;
9276;SDS011;4676;42.678;23.244;2023-07-20T01:22:54;4.27;;;2.80;;
9276;SDS011;4676;42.678;23.244;2023-07-20T01:25:34;3.90;;;2.23;;
9276;SDS011;4676;42.678;23.244;2023-07-20T01:31:30;3.40;;;2.53;;
9276;SDS011;4676;42.678;23.244;2023-07-20T01:33:58;4.57;;;2.80;;
9276;SDS011;4676;42.678;23.244;2023-07-20T01:36:29;3.07;;;2.77;;
9276;SDS011;4676;42.678;23.244;2023-07-20T01:38:59;4.77;;;3.27;;
9276;SDS011;4676;42.678;23.244;2023-07-20T01:41:27;3.87;;;2.93;;
9276;SDS011;4676;42.678;23.244;2023-07-20T01:43:57;4.87;;;3.30;;
9276;SDS011;4676;42.678;23.244;2023-07-20T01:46:24;3.80;;;2.80;;
9276;SDS011;4676;42.678;23.244;2023-07-20T01:48:52;4.03;;;3.60;;
9276;SDS011;4676;42.678;23.244;2023-07-20T01:51:20;9.40;;;3.83;;
9276;SDS011;4676;42.678;23.244;2023-07-20T01:53:47;5.40;;;3.00;;
9276;SDS011;4676;42.678;23.244;2023-07-20T01:56:14;5.17;;;3.63;;
9276;SDS011;4676;42.678;23.244;2023-07-20T01:58:40;8.07;;;3.47;;
9276;SDS011;4676;42.678;23.244;2023-07-20T02:01:07;7.03;;;4.20;;
9276;SDS011;4676;42.678;23.244;2023-07-20T02:03:34;10.73;;;2.93;;
9276;SDS011;4676;42.678;23.244;2023-07-20T02:06:02;4.73;;;3.37;;
9276;SDS011;4676;42.678;23.244;2023-07-20T02:08:28;3.33;;;3.00;;
9276;SDS011;4676;42.678;23.244;2023-07-20T02:10:55;4.97;;;3.40;;
9276;SDS011;4676;42.678;23.244;2023-07-20T02:13:22;5.37;;;2.90;;
9276;SDS011;4676;42.678;23.244;2023-07-20T02:15:49;3.67;;;3.30;;
9276;SDS011;4676;42.678;23.244;2023-07-20T02:18:16;3.43;;;3.10;;
9276;SDS011;4676;42.678;23.244;2023-07-20T02:20:43;3.67;;;3.20;;
9276;SDS011;4676;42.678;23.244;2023-07-20T02:23:11;4.97;;;3.97;;
9276;SDS011;4676;42.678;23.244;2023-07-20T02:25:38;5.83;;;3.07;;
9276;SDS011;4676;42.678;23.244;2023-07-20T02:28:05;6.93;;;4.30;;
9276;SDS011;4676;42.678;23.244;2023-07-20T02:30:33;3.37;;;3.07;;
9276;SDS011;4676;42.678;23.244;2023-07-20T02:33:00;9.47;;;4.17;;
9276;SDS011;4676;42.678;23.244;2023-07-20T02:35:26;4.00;;;3.60;;
9276;SDS011;4676;42.678;23.244;2023-07-20T02:37:53;6.47;;;3.57;;
9276;SDS011;4676;42.678;23.244;2023-07-20T02:40:21;11.53;;;3.93;;
9276;SDS011;4676;42.678;23.244;2023-07-20T02:42:48;3.90;;;3.30;;
9276;SDS011;4676;42.678;23.244;2023-07-20T02:45:15;5.77;;;3.33;;
9276;SDS011;4676;42.678;23.244;2023-07-20T02:47:42;4.43;;;3.47;;
9276;SDS011;4676;42.678;23.244;2023-07-20T02:50:09;4.27;;;3.80;;
9276;SDS011;4676;42.678;23.244;2023-07-20T02:52:38;4.57;;;3.40;;
9276;SDS011;4676;42.678;23.244;2023-07-20T02:55:05;6.27;;;3.60;;
9276;SDS011;4676;42.678;23.244;2023-07-20T02:57:34;4.63;;;3.33;;
9276;SDS011;4676;42.678;23.244;2023-07-20T03:00:01;5.60;;;3.73;;
9276;SDS011;4676;42.678;23.244;2023-07-20T03:02:29;9.50;;;3.93;;
9276;SDS011;4676;42.678;23.244;2023-07-20T03:04:56;4.93;;;4.00;;
9276;SDS011;4676;42.678;23.244;2023-07-20T03:07:26;5.70;;;4.93;;
9276;SDS011;4676;42.678;23.244;2023-07-20T03:09:53;6.83;;;4.60;;
9276;SDS011;4676;42.678;23.244;2023-07-20T03:12:20;6.27;;;4.90;;
9276;SDS011;4676;42.678;23.244;2023-07-20T03:14:48;5.07;;;4.30;;
9276;SDS011;4676;42.678;23.244;2023-07-20T03:17:15;4.50;;;3.93;;
9276;SDS011;4676;42.678;23.244;2023-07-20T03:19:42;12.23;;;4.97;;
9276;SDS011;4676;42.678;23.244;2023-07-20T03:22:08;7.60;;;3.93;;
9276;SDS011;4676;42.678;23.244;2023-07-20T03:24:35;9.13;;;4.33;;
9276;SDS011;4676;42.678;23.244;2023-07-20T03:27:02;4.63;;;4.10;;
9276;SDS011;4676;42.678;23.244;2023-07-20T03:29:28;5.90;;;4.50;;
9276;SDS011;4676;42.678;23.244;2023-07-20T03:31:58;6.70;;;4.07;;
9276;SDS011;4676;42.678;23.244;2023-07-20T03:34:25;5.57;;;4.27;;
9276;SDS011;4676;42.678;23.244;2023-07-20T03:36:52;7.37;;;3.90;;
9276;SDS011;4676;42.678;23.244;2023-07-20T03:39:19;4.90;;;3.73;;
9276;SDS011;4676;42.678;23.244;2023-07-20T03:41:45;4.97;;;4.00;;
9276;SDS011;4676;42.678;23.244;2023-07-20T03:44:12;9.53;;;4.27;;
9276;SDS011;4676;42.678;23.244;2023-07-20T03:46:38;5.13;;;4.67;;
9276;SDS011;4676;42.678;23.244;2023-07-20T03:49:07;9.47;;;3.90;;
9276;SDS011;4676;42.678;23.244;2023-07-20T03:51:34;4.70;;;4.30;;
9276;SDS011;4676;42.678;23.244;2023-07-20T03:54:01;12.23;;;4.47;;
9276;SDS011;4676;42.678;23.244;2023-07-20T03:56:27;5.43;;;4.27;;
9276;SDS011;4676;42.678;23.244;2023-07-20T03:58:59;9.17;;;4.70;;
9276;SDS011;4676;42.678;23.244;2023-07-20T04:01:25;9.70;;;4.97;;
9276;SDS011;4676;42.678;23.244;2023-07-20T04:03:52;4.87;;;4.50;;
9276;SDS011;4676;42.678;23.244;2023-07-20T04:06:20;6.27;;;4.50;;
9276;SDS011;4676;42.678;23.244;2023-07-20T04:08:47;14.13;;;5.07;;
9276;SDS011;4676;42.678;23.244;2023-07-20T04:11:14;4.87;;;4.40;;
9276;SDS011;4676;42.678;23.244;2023-07-20T04:13:41;13.40;;;5.07;;
9276;SDS011;4676;42.678;23.244;2023-07-20T04:16:07;7.57;;;5.07;;
9276;SDS011;4676;42.678;23.244;2023-07-20T04:18:34;10.17;;;4.93;;
9276;SDS011;4676;42.678;23.244;2023-07-20T04:21:01;6.33;;;4.20;;
9276;SDS011;4676;42.678;23.244;2023-07-20T04:23:29;6.43;;;4.23;;
9276;SDS011;4676;42.678;23.244;2023-07-20T04:25:55;5.03;;;4.10;;
9276;SDS011;4676;42.678;23.244;2023-07-20T04:28:22;7.87;;;4.70;;
9276;SDS011;4676;42.678;23.244;2023-07-20T04:30:49;5.03;;;4.43;;
9276;SDS011;4676;42.678;23.244;2023-07-20T04:33:16;6.50;;;4.37;;
9276;SDS011;4676;42.678;23.244;2023-07-20T04:35:47;6.13;;;3.80;;
9276;SDS011;4676;42.678;23.244;2023-07-20T04:38:16;6.23;;;4.87;;
9276;SDS011;4676;42.678;23.244;2023-07-20T04:40:45;7.87;;;4.03;;
9276;SDS011;4676;42.678;23.244;2023-07-20T04:43:12;7.77;;;4.17;;
9276;SDS011;4676;42.678;23.244;2023-07-20T04:45:39;5.30;;;3.33;;
9276;SDS011;4676;42.678;23.244;2023-07-20T04:48:07;3.90;;;3.40;;
9276;SDS011;4676;42.678;23.244;2023-07-20T04:50:36;9.83;;;3.90;;
9276;SDS011;4676;42.678;23.244;2023-07-20T04:53:03;6.30;;;4.50;;
9276;SDS011;4676;42.678;23.244;2023-07-20T04:55:30;4.47;;;4.13;;
9276;SDS011;4676;42.678;23.244;2023-07-20T04:58:00;8.60;;;4.40;;
9276;SDS011;4676;42.678;23.244;2023-07-20T05:00:26;6.97;;;4.33;;
9276;SDS011;4676;42.678;23.244;2023-07-20T05:02:53;6.73;;;5.50;;
9276;SDS011;4676;42.678;23.244;2023-07-20T05:05:20;13.23;;;5.67;;
9276;SDS011;4676;42.678;23.244;2023-07-20T05:07:46;9.23;;;6.13;;
9276;SDS011;4676;42.678;23.244;2023-07-20T05:10:13;13.10;;;4.30;;
9276;SDS011;4676;42.678;23.244;2023-07-20T05:12:40;6.27;;;4.13;;
9276;SDS011;4676;42.678;23.244;2023-07-20T05:15:09;9.70;;;4.23;;
9276;SDS011;4676;42.678;23.244;2023-07-20T05:17:36;6.63;;;3.63;;
9276;SDS011;4676;42.678;23.244;2023-07-20T05:20:03;6.50;;;3.40;;
9276;SDS011;4676;42.678;23.244;2023-07-20T05:22:30;6.97;;;3.37;;
9276;SDS011;4676;42.678;23.244;2023-07-20T05:24:57;5.33;;;3.47;;
9276;SDS011;4676;42.678;23.244;2023-07-20T05:27:24;7.33;;;3.50;;
9276;SDS011;4676;42.678;23.244;2023-07-20T05:29:50;9.87;;;3.20;;
9276;SDS011;4676;42.678;23.244;2023-07-20T05:32:19;11.60;;;3.17;;
9276;SDS011;4676;42.678;23.244;2023-07-20T05:34:45;7.03;;;3.37;;
9276;SDS011;4676;42.678;23.244;2023-07-20T05:37:12;4.10;;;3.33;;
9276;SDS011;4676;42.678;23.244;2023-07-20T05:39:39;5.70;;;3.20;;
9276;SDS011;4676;42.678;23.244;2023-07-20T05:42:06;6.70;;;3.03;;
9276;SDS011;4676;42.678;23.244;2023-07-20T05:44:32;6.33;;;3.13;;
9276;SDS011;4676;42.678;23.244;2023-07-20T05:46:59;6.77;;;2.90;;
9276;SDS011;4676;42.678;23.244;2023-07-20T05:49:29;10.57;;;3.37;;
9276;SDS011;4676;42.678;23.244;2023-07-20T05:51:55;12.27;;;3.53;;
9276;SDS011;4676;42.678;23.244;2023-07-20T05:54:23;5.27;;;3.03;;
9276;SDS011;4676;42.678;23.244;2023-07-20T05:56:50;4.70;;;3.07;;
9276;SDS011;4676;42.678;23.244;2023-07-20T05:59:17;5.03;;;3.50;;
9276;SDS011;4676;42.678;23.244;2023-07-20T06:01:44;3.57;;;3.27;;
9276;SDS011;4676;42.678;23.244;2023-07-20T06:04:12;4.27;;;3.20;;
9276;SDS011;4676;42.678;23.244;2023-07-20T06:06:40;7.37;;;3.77;;
9276;SDS011;4676;42.678;23.244;2023-07-20T06:09:06;7.30;;;3.40;;
9276;SDS011;4676;42.678;23.244;2023-07-20T06:11:36;6.03;;;3.47;;
9276;SDS011;4676;42.678;23.244;2023-07-20T06:14:03;4.00;;;3.00;;
9276;SDS011;4676;42.678;23.244;2023-07-20T06:16:30;6.57;;;3.23;;
9276;SDS011;4676;42.678;23.244;2023-07-20T06:18:58;5.30;;;2.80;;
9276;SDS011;4676;42.678;23.244;2023-07-20T06:21:26;6.13;;;3.40;;
9276;SDS011;4676;42.678;23.244;2023-07-20T06:23:54;4.77;;;3.67;;
9276;SDS011;4676;42.678;23.244;2023-07-20T06:26:21;6.20;;;3.53;;
9276;SDS011;4676;42.678;23.244;2023-07-20T06:28:47;4.63;;;3.10;;
9276;SDS011;4676;42.678;23.244;2023-07-20T06:31:14;6.97;;;3.77;;
9276;SDS011;4676;42.678;23.244;2023-07-20T06:33:41;13.87;;;3.77;;
9276;SDS011;4676;42.678;23.244;2023-07-20T06:36:07;6.27;;;3.07;;
9276;SDS011;4676;42.678;23.244;2023-07-20T06:38:34;7.17;;;3.53;;
9276;SDS011;4676;42.678;23.244;2023-07-20T06:41:02;6.57;;;3.33;;
9276;SDS011;4676;42.678;23.244;2023-07-20T06:43:29;4.97;;;3.27;;
9276;SDS011;4676;42.678;23.244;2023-07-20T06:45:56;3.37;;;3.07;;
9276;SDS011;4676;42.678;23.244;2023-07-20T06:48:22;6.87;;;3.70;;
9276;SDS011;4676;42.678;23.244;2023-07-20T06:50:49;8.53;;;3.27;;
9276;SDS011;4676;42.678;23.244;2023-07-20T06:53:16;10.33;;;3.50;;
9276;SDS011;4676;42.678;23.244;2023-07-20T06:55:43;11.27;;;3.47;;
9276;SDS011;4676;42.678;23.244;2023-07-20T06:58:11;14.27;;;4.13;;
9276;SDS011;4676;42.678;23.244;2023-07-20T07:00:38;7.57;;;3.03;;
9276;SDS011;4676;42.678;23.244;2023-07-20T07:03:04;3.80;;;3.50;;
9276;SDS011;4676;42.678;23.244;2023-07-20T07:07:59;7.00;;;3.00;;
9276;SDS011;4676;42.678;23.244;2023-07-20T07:10:26;5.67;;;4.03;;
9276;SDS011;4676;42.678;23.244;2023-07-20T07:12:52;5.93;;;3.63;;
9276;SDS011;4676;42.678;23.244;2023-07-20T07:15:20;9.50;;;3.80;;
9276;SDS011;4676;42.678;23.244;2023-07-20T07:17:47;9.20;;;3.67;;
9276;SDS011;4676;42.678;23.244;2023-07-20T07:20:14;8.50;;;3.27;;
9276;SDS011;4676;42.678;23.244;2023-07-20T07:22:41;5.77;;;3.40;;
9276;SDS011;4676;42.678;23.244;2023-07-20T07:25:09;7.50;;;4.27;;
9276;SDS011;4676;42.678;23.244;2023-07-20T07:27:36;8.10;;;4.70;;
9276;SDS011;4676;42.678;23.244;2023-07-20T07:30:03;7.87;;;3.67;;
9276;SDS011;4676;42.678;23.244;2023-07-20T07:32:32;8.03;;;3.03;;
9276;SDS011;4676;42.678;23.244;2023-07-20T07:34:59;10.67;;;3.70;;
9276;SDS011;4676;42.678;23.244;2023-07-20T07:37:26;9.23;;;4.03;;
9276;SDS011;4676;42.678;23.244;2023-07-20T07:39:52;9.60;;;3.63;;
9276;SDS011;4676;42.678;23.244;2023-07-20T07:42:19;6.17;;;3.67;;
9276;SDS011;4676;42.678;23.244;2023-07-20T07:44:46;4.70;;;2.93;;
9276;SDS011;4676;42.678;23.244;2023-07-20T07:47:12;5.13;;;3.50;;
9276;SDS011;4676;42.678;23.244;2023-07-20T07:49:41;6.00;;;3.10;;
9276;SDS011;4676;42.678;23.244;2023-07-20T07:52:08;4.90;;;3.30;;
9276;SDS011;4676;42.678;23.244;2023-07-20T07:54:34;13.40;;;3.53;;
9276;SDS011;4676;42.678;23.244;2023-07-20T07:57:01;5.93;;;3.10;;
9276;SDS011;4676;42.678;23.244;2023-07-20T07:59:28;5.63;;;3.67;;
9276;SDS011;4676;42.678;23.244;2023-07-20T08:01:56;7.77;;;3.63;;
9276;SDS011;4676;42.678;23.244;2023-07-20T08:04:23;11.00;;;3.60;;
9276;SDS011;4676;42.678;23.244;2023-07-20T08:06:51;6.50;;;3.63;;
9276;SDS011;4676;42.678;23.244;2023-07-20T08:09:18;5.63;;;3.70;;
9276;SDS011;4676;42.678;23.244;2023-07-20T08:11:45;5.87;;;3.03;;
9276;SDS011;4676;42.678;23.244;2023-07-20T08:14:13;13.60;;;2.93;;
9276;SDS011;4676;42.678;23.244;2023-07-20T08:16:40;5.70;;;2.63;;
9276;SDS011;4676;42.678;23.244;2023-07-20T08:19:08;2.73;;;2.10;;
9276;SDS011;4676;42.678;23.244;2023-07-20T08:21:34;6.07;;;2.23;;
9276;SDS011;4676;42.678;23.244;2023-07-20T08:24:02;6.60;;;2.30;;
9276;SDS011;4676;42.678;23.244;2023-07-20T08:26:29;4.10;;;2.37;;
9276;SDS011;4676;42.678;23.244;2023-07-20T08:28:56;5.33;;;2.10;;
9276;SDS011;4676;42.678;23.244;2023-07-20T08:31:23;8.57;;;2.30;;
9276;SDS011;4676;42.678;23.244;2023-07-20T08:33:50;4.60;;;2.67;;
9276;SDS011;4676;42.678;23.244;2023-07-20T08:36:16;2.63;;;2.23;;
9276;SDS011;4676;42.678;23.244;2023-07-20T08:38:43;6.43;;;2.10;;
9276;SDS011;4676;42.678;23.244;2023-07-20T08:41:11;6.33;;;2.30;;
9276;SDS011;4676;42.678;23.244;2023-07-20T08:43:38;6.10;;;2.93;;
9276;SDS011;4676;42.678;23.244;2023-07-20T08:46:08;2.90;;;2.37;;
9276;SDS011;4676;42.678;23.244;2023-07-20T08:48:37;7.33;;;2.60;;
9276;SDS011;4676;42.678;23.244;2023-07-20T08:51:07;6.30;;;2.50;;
9276;SDS011;4676;42.678;23.244;2023-07-20T08:53:33;4.07;;;2.00;;
9276;SDS011;4676;42.678;23.244;2023-07-20T08:56:00;4.23;;;2.50;;
9276;SDS011;4676;42.678;23.244;2023-07-20T08:58:29;4.67;;;1.80;;
9276;SDS011;4676;42.678;23.244;2023-07-20T09:00:57;8.77;;;2.70;;
9276;SDS011;4676;42.678;23.244;2023-07-20T09:03:25;4.20;;;2.30;;
9276;SDS011;4676;42.678;23.244;2023-07-20T09:05:52;6.93;;;2.60;;
9276;SDS011;4676;42.678;23.244;2023-07-20T09:08:20;6.30;;;2.57;;
9276;SDS011;4676;42.678;23.244;2023-07-20T09:10:47;7.50;;;1.90;;
9276;SDS011;4676;42.678;23.244;2023-07-20T09:13:14;5.63;;;2.73;;
9276;SDS011;4676;42.678;23.244;2023-07-20T09:15:46;4.57;;;2.00;;
9276;SDS011;4676;42.678;23.244;2023-07-20T09:18:23;2.77;;;2.10;;
9276;SDS011;4676;42.678;23.244;2023-07-20T09:20:51;2.77;;;2.13;;
9276;SDS011;4676;42.678;23.244;2023-07-20T09:23:17;4.60;;;2.20;;
9276;SDS011;4676;42.678;23.244;2023-07-20T09:25:44;6.80;;;2.50;;
9276;SDS011;4676;42.678;23.244;2023-07-20T09:28:15;9.33;;;2.57;;
9276;SDS011;4676;42.678;23.244;2023-07-20T09:30:42;3.77;;;2.00;;
9276;SDS011;4676;42.678;23.244;2023-07-20T09:33:12;9.03;;;2.07;;
9276;SDS011;4676;42.678;23.244;2023-07-20T09:35:45;4.00;;;2.10;;
9276;SDS011;4676;42.678;23.244;2023-07-20T09:38:12;9.13;;;1.90;;
9276;SDS011;4676;42.678;23.244;2023-07-20T09:40:41;2.43;;;1.97;;
9276;SDS011;4676;42.678;23.244;2023-07-20T09:43:09;2.80;;;2.00;;
9276;SDS011;4676;42.678;23.244;2023-07-20T09:45:39;5.43;;;2.90;;
9276;SDS011;4676;42.678;23.244;2023-07-20T09:48:06;9.90;;;2.80;;
9276;SDS011;4676;42.678;23.244;2023-07-20T09:50:35;2.07;;;1.87;;
9276;SDS011;4676;42.678;23.244;2023-07-20T09:53:07;4.97;;;1.97;;
9276;SDS011;4676;42.678;23.244;2023-07-20T09:55:35;5.13;;;1.67;;
9276;SDS011;4676;42.678;23.244;2023-07-20T09:58:03;3.37;;;2.20;;
9276;SDS011;4676;42.678;23.244;2023-07-20T10:00:32;3.57;;;1.73;;
9276;SDS011;4676;42.678;23.244;2023-07-20T10:03:00;7.33;;;2.30;;
9276;SDS011;4676;42.678;23.244;2023-07-20T10:05:31;4.30;;;1.50;;
9276;SDS011;4676;42.678;23.244;2023-07-20T10:08:01;2.60;;;2.00;;
9276;SDS011;4676;42.678;23.244;2023-07-20T10:10:31;3.80;;;2.03;;
9276;SDS011;4676;42.678;23.244;2023-07-20T10:13:00;4.90;;;2.23;;
9276;SDS011;4676;42.678;23.244;2023-07-20T10:15:29;3.90;;;2.03;;
9276;SDS011;4676;42.678;23.244;2023-07-20T10:18:01;5.37;;;2.27;;
9276;SDS011;4676;42.678;23.244;2023-07-20T10:20:30;4.67;;;1.93;;
9276;SDS011;4676;42.678;23.244;2023-07-20T10:22:59;2.70;;;1.80;;
9276;SDS011;4676;42.678;23.244;2023-07-20T10:25:28;4.57;;;1.43;;
9276;SDS011;4676;42.678;23.244;2023-07-20T10:27:56;7.43;;;1.93;;
9276;SDS011;4676;42.678;23.244;2023-07-20T10:30:23;4.07;;;1.83;;
9276;SDS011;4676;42.678;23.244;2023-07-20T10:32:51;2.97;;;1.67;;
9276;SDS011;4676;42.678;23.244;2023-07-20T10:35:19;6.60;;;2.20;;
9276;SDS011;4676;42.678;23.244;2023-07-20T10:37:46;4.10;;;2.10;;
9276;SDS011;4676;42.678;23.244;2023-07-20T10:40:23;5.70;;;1.93;;
9276;SDS011;4676;42.678;23.244;2023-07-20T10:42:52;4.53;;;2.07;;
9276;SDS011;4676;42.678;23.244;2023-07-20T10:45:32;4.53;;;2.20;;
9276;SDS011;4676;42.678;23.244;2023-07-20T10:48:06;3.23;;;2.10;;
9276;SDS011;4676;42.678;23.244;2023-07-20T10:50:38;5.27;;;1.70;;
9276;SDS011;4676;42.678;23.244;2023-07-20T10:53:12;3.80;;;1.67;;
9276;SDS011;4676;42.678;23.244;2023-07-20T10:55:40;6.83;;;2.20;;
9276;SDS011;4676;42.678;23.244;2023-07-20T10:58:11;6.40;;;2.00;;
9276;SDS011;4676;42.678;23.244;2023-07-20T11:03:27;4.03;;;2.30;;
9276;SDS011;4676;42.678;23.244;2023-07-20T11:05:56;5.17;;;2.40;;
9276;SDS011;4676;42.678;23.244;2023-07-20T11:08:39;6.67;;;2.30;;
9276;SDS011;4676;42.678;23.244;2023-07-20T11:11:22;10.33;;;2.77;;
9276;SDS011;4676;42.678;23.244;2023-07-20T11:13:58;3.10;;;1.90;;
9276;SDS011;4676;42.678;23.244;2023-07-20T11:16:32;3.10;;;2.30;;
9276;SDS011;4676;42.678;23.244;2023-07-20T11:19:01;5.93;;;2.30;;
9276;SDS011;4676;42.678;23.244;2023-07-20T11:21:28;3.87;;;2.20;;
9276;SDS011;4676;42.678;23.244;2023-07-20T11:23:55;2.07;;;1.77;;
9276;SDS011;4676;42.678;23.244;2023-07-20T11:26:22;6.67;;;2.70;;
9276;SDS011;4676;42.678;23.244;2023-07-20T11:28:49;9.03;;;2.63;;
9276;SDS011;4676;42.678;23.244;2023-07-20T11:31:18;5.47;;;3.43;;
9276;SDS011;4676;42.678;23.244;2023-07-20T11:33:45;4.90;;;2.13;;
9276;SDS011;4676;42.678;23.244;2023-07-20T11:36:12;5.37;;;2.20;;
9276;SDS011;4676;42.678;23.244;2023-07-20T11:38:39;6.47;;;2.07;;
9276;SDS011;4676;42.678;23.244;2023-07-20T11:41:08;3.10;;;2.90;;
9276;SDS011;4676;42.678;23.244;2023-07-20T11:43:34;5.37;;;2.50;;
9276;SDS011;4676;42.678;23.244;2023-07-20T11:46:04;7.00;;;2.80;;
9276;SDS011;4676;42.678;23.244;2023-07-20T11:48:32;8.43;;;3.27;;
9276;SDS011;4676;42.678;23.244;2023-07-20T11:50:59;6.80;;;3.13;;
9276;SDS011;4676;42.678;23.244;2023-07-20T11:53:26;8.33;;;2.87;;
9276;SDS011;4676;42.678;23.244;2023-07-20T11:55:53;6.07;;;2.97;;
9276;SDS011;4676;42.678;23.244;2023-07-20T11:58:20;7.10;;;2.70;;
9276;SDS011;4676;42.678;23.244;2023-07-20T12:00:47;4.40;;;2.83;;
9276;SDS011;4676;42.678;23.244;2023-07-20T12:03:13;3.87;;;3.27;;
9276;SDS011;4676;42.678;23.244;2023-07-20T12:05:41;3.53;;;2.00;;
9276;SDS011;4676;42.678;23.244;2023-07-20T12:08:08;5.70;;;2.20;;
9276;SDS011;4676;42.678;23.244;2023-07-20T12:10:38;2.90;;;2.03;;
9276;SDS011;4676;42.678;23.244;2023-07-20T12:13:09;6.20;;;3.30;;
9276;SDS011;4676;42.678;23.244;2023-07-20T12:15:37;8.90;;;2.80;;
9276;SDS011;4676;42.678;23.244;2023-07-20T12:18:04;4.20;;;1.83;;
9276;SDS011;4676;42.678;23.244;2023-07-20T12:20:31;10.37;;;2.50;;
9276;SDS011;4676;42.678;23.244;2023-07-20T12:23:02;3.13;;;2.07;;
9276;SDS011;4676;42.678;23.244;2023-07-20T12:25:37;2.23;;;2.10;;
9276;SDS011;4676;42.678;23.244;2023-07-20T12:28:04;2.53;;;2.20;;
9276;SDS011;4676;42.678;23.244;2023-07-20T12:30:33;7.50;;;2.27;;
9276;SDS011;4676;42.678;23.244;2023-07-20T12:32:59;4.67;;;2.20;;
9276;SDS011;4676;42.678;23.244;2023-07-20T12:35:26;5.40;;;2.00;;
9276;SDS011;4676;42.678;23.244;2023-07-20T12:37:53;2.87;;;1.70;;
9276;SDS011;4676;42.678;23.244;2023-07-20T12:40:21;2.93;;;2.17;;
9276;SDS011;4676;42.678;23.244;2023-07-20T12:42:48;6.87;;;2.70;;
9276;SDS011;4676;42.678;23.244;2023-07-20T12:45:15;5.50;;;2.23;;
9276;SDS011;4676;42.678;23.244;2023-07-20T12:47:42;3.87;;;2.33;;
9276;SDS011;4676;42.678;23.244;2023-07-20T12:50:09;7.47;;;2.57;;
9276;SDS011;4676;42.678;23.244;2023-07-20T12:52:36;6.73;;;2.70;;
9276;SDS011;4676;42.678;23.244;2023-07-20T12:55:03;7.03;;;2.10;;
9276;SDS011;4676;42.678;23.244;2023-07-20T12:57:33;5.80;;;2.13;;
9276;SDS011;4676;42.678;23.244;2023-07-20T13:00:00;4.67;;;2.20;;
9276;SDS011;4676;42.678;23.244;2023-07-20T13:02:26;4.57;;;2.03;;
9276;SDS011;4676;42.678;23.244;2023-07-20T13:04:53;8.47;;;3.40;;
9276;SDS011;4676;42.678;23.244;2023-07-20T13:07:28;3.30;;;2.70;;
9276;SDS011;4676;42.678;23.244;2023-07-20T13:09:57;3.50;;;2.43;;
9276;SDS011;4676;42.678;23.244;2023-07-20T13:12:25;11.43;;;2.50;;
9276;SDS011;4676;42.678;23.244;2023-07-20T13:14:53;3.40;;;2.23;;
9276;SDS011;4676;42.678;23.244;2023-07-20T13:17:23;5.97;;;2.20;;
9276;SDS011;4676;42.678;23.244;2023-07-20T13:19:50;3.37;;;2.03;;
9276;SDS011;4676;42.678;23.244;2023-07-20T13:22:17;4.43;;;2.10;;
9276;SDS011;4676;42.678;23.244;2023-07-20T13:24:44;5.60;;;1.77;;
9276;SDS011;4676;42.678;23.244;2023-07-20T13:27:13;4.77;;;2.40;;
9276;SDS011;4676;42.678;23.244;2023-07-20T13:29:41;5.30;;;2.40;;
9276;SDS011;4676;42.678;23.244;2023-07-20T13:32:09;2.50;;;2.27;;
9276;SDS011;4676;42.678;23.244;2023-07-20T13:34:36;9.00;;;2.87;;
9276;SDS011;4676;42.678;23.244;2023-07-20T13:37:03;6.03;;;2.60;;
9276;SDS011;4676;42.678;23.244;2023-07-20T13:39:31;6.20;;;1.70;;
9276;SDS011;4676;42.678;23.244;2023-07-20T13:41:57;7.53;;;1.90;;
9276;SDS011;4676;42.678;23.244;2023-07-20T13:44:26;3.80;;;1.83;;
9276;SDS011;4676;42.678;23.244;2023-07-20T13:46:53;4.17;;;1.80;;
9276;SDS011;4676;42.678;23.244;2023-07-20T13:49:21;7.97;;;2.30;;
9276;SDS011;4676;42.678;23.244;2023-07-20T13:51:49;2.97;;;1.80;;
9276;SDS011;4676;42.678;23.244;2023-07-20T13:54:16;4.70;;;1.70;;
9276;SDS011;4676;42.678;23.244;2023-07-20T13:56:42;2.77;;;2.53;;
9276;SDS011;4676;42.678;23.244;2023-07-20T13:59:09;5.10;;;2.63;;
9276;SDS011;4676;42.678;23.244;2023-07-20T14:01:35;9.80;;;2.43;;
9276;SDS011;4676;42.678;23.244;2023-07-20T14:04:02;6.07;;;1.67;;
9276;SDS011;4676;42.678;23.244;2023-07-20T14:06:31;7.93;;;2.57;;
9276;SDS011;4676;42.678;23.244;2023-07-20T14:08:59;8.43;;;1.93;;
9276;SDS011;4676;42.678;23.244;2023-07-20T14:11:26;2.67;;;1.97;;
9276;SDS011;4676;42.678;23.244;2023-07-20T14:13:53;4.03;;;1.93;;
9276;SDS011;4676;42.678;23.244;2023-07-20T14:16:19;2.70;;;1.50;;
9276;SDS011;4676;42.678;23.244;2023-07-20T14:18:46;3.57;;;2.00;;
9276;SDS011;4676;42.678;23.244;2023-07-20T14:21:13;2.93;;;1.60;;
9276;SDS011;4676;42.678;23.244;2023-07-20T14:23:42;3.07;;;1.87;;
9276;SDS011;4676;42.678;23.244;2023-07-20T14:26:11;8.43;;;2.33;;
9276;SDS011;4676;42.678;23.244;2023-07-20T14:28:38;5.23;;;1.90;;
9276;SDS011;4676;42.678;23.244;2023-07-20T14:31:05;3.77;;;1.90;;
9276;SDS011;4676;42.678;23.244;2023-07-20T14:33:32;4.97;;;1.80;;
9276;SDS011;4676;42.678;23.244;2023-07-20T14:35:58;9.57;;;2.30;;
9276;SDS011;4676;42.678;23.244;2023-07-20T14:38:26;8.03;;;2.53;;
9276;SDS011;4676;42.678;23.244;2023-07-20T14:40:54;7.77;;;1.90;;
9276;SDS011;4676;42.678;23.244;2023-07-20T14:43:21;4.40;;;1.90;;
9276;SDS011;4676;42.678;23.244;2023-07-20T14:45:48;2.70;;;1.50;;
9276;SDS011;4676;42.678;23.244;2023-07-20T14:48:14;2.60;;;1.50;;
9276;SDS011;4676;42.678;23.244;2023-07-20T14:50:41;6.73;;;3.03;;
9276;SDS011;4676;42.678;23.244;2023-07-20T14:53:10;3.43;;;1.70;;
9276;SDS011;4676;42.678;23.244;2023-07-20T14:55:37;3.10;;;1.77;;
9276;SDS011;4676;42.678;23.244;2023-07-20T14:58:05;4.17;;;2.00;;
9276;SDS011;4676;42.678;23.244;2023-07-20T15:00:31;2.77;;;1.80;;
9276;SDS011;4676;42.678;23.244;2023-07-20T15:02:58;2.30;;;1.90;;
9276;SDS011;4676;42.678;23.244;2023-07-20T15:05:25;3.43;;;1.80;;
9276;SDS011;4676;42.678;23.244;2023-07-20T15:07:52;2.17;;;1.97;;
9276;SDS011;4676;42.678;23.244;2023-07-20T15:10:19;4.70;;;1.70;;
9276;SDS011;4676;42.678;23.244;2023-07-20T15:12:47;3.63;;;2.27;;